»·PEaware :: ASA877 KSFO-KLAX

ASA877 :: KSFO-KLAX

FLIGHT INFORMATION

Flight Status: Arrived
Operator:
Alaska Airlines
More flights by this operator :: More flights under this callsign
Pilot: Anthony T. (15846)
Aircraft: BOEING 737-800
(B738)
More flights by this aircraft type
Origin: KSFO San Francisco Intl
United States
Destination: KLAX Los Angeles Intl
United States
More flights between these airports :: More routes between these airports
Route: +SSTIK3 EBAYE BURGL IRNMN1
File this flight plan on PilotEdge
Remarks:
Altitude:
(Current/Filed)
27,000ft
Speed:
(Current/Filed)
315kts
Departed: 03-May-18 08:29 PM
Arrived: 03-May-18 09:27 PM
Distance/Time
Traveled:
292nm/0:58
Distance/Time
To Go:
Arrived

Flight Plot

Page will automatically refresh every two minutes.

Flight plan parsing failed; only flown route is shown


Map Options




Map Legend


Flown Route
Filed Route
Departure Airport
Arrival Airport
Navaid (VOR, NDB)
Fix

Horizontal Profiles

Position Reports

Time Latitude Longitude Heading Altitude Ground
Speed
03-May-18 20:14 37.611683 -122.385971 34 31ft 0kts
03-May-18 20:15 37.611683 -122.385971 34 31ft 0kts
03-May-18 20:16 37.611683 -122.385971 34 31ft 0kts
03-May-18 20:17 37.611683 -122.385971 34 31ft 0kts
03-May-18 20:18 37.611683 -122.385971 34 31ft 0kts
03-May-18 20:19 37.611683 -122.385971 34 31ft 0kts
03-May-18 20:20 37.611683 -122.385971 34 31ft 0kts
03-May-18 20:21 37.611683 -122.385971 34 31ft 0kts
03-May-18 20:22 37.611439 -122.386342 85 31ft 7kts
03-May-18 20:23 37.611501 -122.386696 128 31ft 0kts
03-May-18 20:24 37.611501 -122.386696 128 31ft 0kts
03-May-18 20:25 37.611501 -122.386696 128 31ft 0kts
03-May-18 20:26 37.610427 -122.384393 139 31ft 15kts
03-May-18 20:28 37.609376 -122.383395 119 31ft 0kts
03-May-18 20:29 37.615444 -122.377930 24 28ft 144kts
03-May-18 20:30 37.671441 -122.374246 317 2995ft 259kts
03-May-18 20:31 37.664892 -122.463865 222 6289ft 337kts
03-May-18 20:32 37.562170 -122.477818 174 9795ft 388kts
03-May-18 20:33 37.481918 -122.445146 146 13124ft 295kts
03-May-18 20:34 37.415271 -122.371182 133 16161ft 357kts
03-May-18 20:35 37.345332 -122.278002 131 18971ft 378kts
03-May-18 20:36 37.272185 -122.179069 130 21781ft 400kts
03-May-18 20:37 37.194465 -122.074152 130 24601ft 423kts
03-May-18 20:38 37.112541 -121.963922 131 27067ft 447kts
03-May-18 20:39 37.026692 -121.848841 131 27145ft 481kts
03-May-18 20:40 36.930877 -121.720916 131 27131ft 510kts
03-May-18 20:41 36.834181 -121.592308 131 27128ft 510kts
03-May-18 20:42 36.737022 -121.463582 131 27126ft 510kts
03-May-18 20:43 36.640133 -121.335713 132 27128ft 510kts
03-May-18 20:44 36.542794 -121.207759 132 27129ft 510kts
03-May-18 20:45 36.445328 -121.080161 132 27126ft 511kts
03-May-18 20:46 36.351859 -120.947387 129 27088ft 513kts
03-May-18 20:47 36.258580 -120.813670 129 27074ft 514kts
03-May-18 20:48 36.165173 -120.680284 129 27075ft 514kts
03-May-18 20:49 36.071506 -120.547116 129 27075ft 514kts
03-May-18 20:50 35.977941 -120.414598 129 27074ft 514kts
03-May-18 20:51 35.883978 -120.282738 133 27050ft 515kts
03-May-18 20:52 35.765750 -120.183020 147 27070ft 518kts
03-May-18 20:53 35.643767 -120.090876 147 27072ft 518kts
03-May-18 20:54 35.521468 -119.997807 148 27077ft 519kts
03-May-18 20:55 35.398813 -119.906548 147 27086ft 517kts
03-May-18 20:56 35.277797 -119.812799 142 27100ft 516kts
03-May-18 20:57 35.163998 -119.707489 141 27102ft 515kts
03-May-18 20:58 35.050046 -119.601373 141 27080ft 516kts
03-May-18 20:59 34.936343 -119.495844 141 27054ft 516kts
03-May-18 21:00 34.820816 -119.391757 142 26535ft 514kts
03-May-18 21:01 34.712180 -119.295455 142 23993ft 461kts
03-May-18 21:02 34.611322 -119.207755 143 21483ft 439kts
03-May-18 21:03 34.516718 -119.125052 142 18985ft 402kts
03-May-18 21:04 34.434257 -119.052328 142 16496ft 366kts
03-May-18 21:05 34.354423 -118.983122 142 14409ft 353kts
03-May-18 21:06 34.277828 -118.914081 140 14147ft 346kts
03-May-18 21:07 34.201254 -118.844008 140 13733ft 349kts
03-May-18 21:08 34.128962 -118.771452 135 11736ft 331kts
03-May-18 21:09 34.060971 -118.697582 136 9740ft 328kts
03-May-18 21:10 34.026243 -118.602515 97 8702ft 314kts
03-May-18 21:11 34.015083 -118.505939 94 7704ft 282kts
03-May-18 21:12 34.021364 -118.421242 81 6359ft 268kts
03-May-18 21:13 34.028426 -118.353548 81 6143ft 235kts
03-May-18 21:14 34.036406 -118.281871 81 4673ft 232kts
03-May-18 21:15 34.044709 -118.212934 81 4142ft 207kts
03-May-18 21:16 34.052570 -118.147829 81 4141ft 208kts
03-May-18 21:17 34.060832 -118.079456 81 4143ft 208kts
03-May-18 21:18 34.039414 -118.031724 171 4154ft 195kts
03-May-18 21:19 34.007296 -118.067346 244 4141ft 190kts
03-May-18 21:20 33.987192 -118.122877 250 4131ft 179kts
03-May-18 21:21 33.975406 -118.175180 264 3828ft 155kts
03-May-18 21:22 33.970357 -118.225101 263 3063ft 163kts
03-May-18 21:23 33.965036 -118.277235 263 2186ft 151kts
03-May-18 21:24 33.960068 -118.325440 263 1391ft 143kts
03-May-18 21:25 33.955348 -118.371423 262 673ft 140kts
03-May-18 21:26 33.950823 -118.414484 262 123ft 82kts
03-May-18 21:27 33.948666 -118.426577 227 114ft 0kts
03-May-18 21:28 33.947711 -118.427516 207 111ft 21kts

Navigation Log

Ident Type
Flight plan parsing failed, navigation log unavailable